9°C
Porth, Newquay, Cornwall. UK  Tell A Friend
 Ad **Ad
Updated29/04/2017 02:30 
 


More METAR Reports From


Metar Station     Metar Station     Metar Station     Metar Station     Metar Station
EGBB Birmingham     EGBE Coventry     EGLL London Heathrow     EGKK London Gatwick     EGGP Liverpool
EGGW Luton     EGNX East Midlands     EGLC London City     EGCC Mancester Intl     EGSS Stanstead
Local Metars Here                                
EGBB - Birmingham Airpo, United Kingdom
Updated: 29/04/2017 02:20
Clear
Clear
 Wind from SW
Wind: SW 5 mph , 7 km/h, 4 kts
Temperature: 7°C
Wind Chill: 6°C
Dew Point: 7°C
Humidity: 100%
Barometer: 1015 hPa
Summary: Clear
Visibility: greater than 7 miles , 10 km
2017/04/29 01:20 EGBB 290120Z 23004KT CAVOK 07/07 Q1015
EGBE - Coventry Airport, United Kingdom
Updated: 27/04/2017 16:50

NOT Current
Nearby showers, Partly cloudy
Nearby showers, Partly cloudy
 Wind from WNW
Wind: WNW 17 mph , 28 km/h, Gust: 30 mph , 48 km/h, 15 kts
Temperature: 11°C
Dew Point: 5°C
Humidity: 67%
Barometer: 1016 hPa
Summary: Nearby Showers
Clouds: Partly Cloudy
Visibility: 6 miles , 10 km
Cloud details: Partly Cloudy 1067 m
Partly Cloudy 1676 m
2017/04/27 15:50 EGBE 271550Z 30015G26KT 9999 VCSH SCT035 SCT055TCU 11/05 Q1016
 
EGLL - London/Heathrow, United Kingdom
Updated: 29/04/2017 02:20
Partly Cloudy
Partly Cloudy
 Wind from W
Wind: W 5 mph , 7 km/h, 4 kts
Temperature: 8°C
Wind Chill: 7°C
Dew Point: 4°C
Humidity: 76%
Barometer: 1016 hPa
Clouds: Partly Cloudy
Visibility: 6 miles , 10 km
Cloud details: Partly Cloudy 1311 m
2017/04/29 01:20 EGLL 290120Z AUTO 27004KT 9999 SCT043 08/04 Q1016 NOSIG
EGKK - London/Gatwick A, United Kingdom
Updated: 29/04/2017 02:20
Few Clouds
Few Clouds
 Wind from calm
Wind: Calm, 0 kts
Temperature: 6°C
Dew Point: 4°C
Humidity: 87%
Barometer: 1016 hPa
Clouds: Few Clouds
Visibility: 6 miles , 10 km
Cloud details: Few Clouds 1372 m
2017/04/29 01:20 EGKK 290120Z 00000KT 9999 FEW045 06/04 Q1016
 
EGGP - Liverpool Airpor, United Kingdom
Updated: 29/04/2017 02:20
Partly Cloudy
Partly Cloudy
 Wind from SW
Wind: SW 6 mph , 9 km/h, 5 kts
Temperature: 9°C
Wind Chill: 7°C
Dew Point: 5°C
Humidity: 76%
Barometer: 1015 hPa
Clouds: Partly Cloudy
Visibility: 6 miles , 10 km
Cloud details: Few Clouds 457 m
Partly Cloudy 1067 m
2017/04/29 01:20 EGGP 290120Z 22005KT 9999 FEW015 SCT035 09/05 Q1015
EGGW - Luton Airport, United Kingdom
Updated: 29/04/2017 02:20
Overcast
Overcast
 Wind from WSW
Wind: WSW 7 mph , 11 km/h, 6 kts
Temperature: 8°C
Wind Chill: 6°C
Dew Point: 5°C
Humidity: 82%
Barometer: 1016 hPa
Clouds: Overcast
Visibility: 6 miles , 10 km
Cloud details: Overcast 914 m
2017/04/29 01:20 EGGW 290120Z AUTO 24006KT 9999 OVC030 08/05 Q1016
 
EGNX - East Midlands, United Kingdom
Updated: 29/04/2017 02:20
Clear
Clear
 Wind from WNW
Wind: WNW 5 mph , 7 km/h, 4 kts
Temperature: 7°C
Wind Chill: 6°C
Dew Point: 6°C
Humidity: 93%
Barometer: 1015 hPa
Summary: Clear
Visibility: greater than 7 miles , 10 km
2017/04/29 01:20 EGNX 290120Z 29004KT CAVOK 07/06 Q1015
EGLC - London City Airp, United Kingdom
Updated: 29/04/2017 02:20
Clear
Clear
 Wind from SW
Wind: SW 7 mph , 11 km/h, 6 kts
Temperature: 10°C
Wind Chill: 8°C
Dew Point: 6°C
Humidity: 76%
Barometer: 1016 hPa
Clouds: Clear
Visibility: 6 miles , 10 km
2017/04/29 01:20 EGLC 290120Z AUTO 23006KT 9999 NCD 10/06 Q1016
 
EGCC - Manchester Intl, United Kingdom
Updated: 29/04/2017 02:20
Mostly Cloudy
Mostly Cloudy
 Wind from varies
Wind: varies 2 mph , 4 km/h, 2 kts
Temperature: 7°C
Dew Point: 6°C
Humidity: 93%
Barometer: 1015 hPa
Clouds: Mostly Cloudy
Visibility: 6 miles , 10 km
Cloud details: Mostly Cloudy 1189 m
2017/04/29 01:20 EGCC 290120Z AUTO VRB02KT 9999 BKN039 07/06 Q1015 NOSIG
EGSS - Stansted Airport, United Kingdom
Updated: 29/04/2017 02:20
Clear
Clear
 Wind from varies
Wind: varies 2 mph , 4 km/h, 2 kts
Temperature: 8°C
Dew Point: 5°C
Humidity: 82%
Barometer: 1016 hPa
Clouds: Clear
Visibility: 6 miles , 10 km
2017/04/29 01:20 EGSS 290120Z AUTO VRB02KT 9999 NCD 08/05 Q1016

Metar, brief description

METAR is a format for reporting weather information. A METAR weather report is predominantly used by pilots in fulfillment of a part of a pre-flight weather briefing, and by meteorologists, who use aggregated METAR information to assist in weather forecasting.

Raw METAR is the most popular format in the world for the transmission of weather data. Each METAR report contains essential information about the current weather conditions: Temperature, Dew Point, Barometric Pressure, Wind Speed and Direction, Visibility, Clouds Cover, Current Weather (Rain, Thunderstorms, Hail, Snow and so on...), here is an example of a raw metar report for EGHQ (Newquay airport).
METAR not available